sensor_id;sensor_type;location;lat;lon;timestamp;P1;durP1;ratioP1;P2;durP2;ratioP2
20844;SDS011;10583;49.084;8.646;2022-11-20T00:00:36;9.10;;;9.10;;
20844;SDS011;10583;49.084;8.646;2022-11-20T00:03:03;8.50;;;8.50;;
20844;SDS011;10583;49.084;8.646;2022-11-20T00:05:33;10.63;;;10.63;;
20844;SDS011;10583;49.084;8.646;2022-11-20T00:07:59;9.90;;;9.90;;
20844;SDS011;10583;49.084;8.646;2022-11-20T00:10:26;10.33;;;10.33;;
20844;SDS011;10583;49.084;8.646;2022-11-20T00:12:53;9.70;;;9.70;;
20844;SDS011;10583;49.084;8.646;2022-11-20T00:15:19;9.33;;;9.33;;
20844;SDS011;10583;49.084;8.646;2022-11-20T00:17:46;10.30;;;10.30;;
20844;SDS011;10583;49.084;8.646;2022-11-20T00:20:13;9.70;;;9.70;;
20844;SDS011;10583;49.084;8.646;2022-11-20T00:22:42;9.47;;;9.47;;
20844;SDS011;10583;49.084;8.646;2022-11-20T00:25:08;9.57;;;9.57;;
20844;SDS011;10583;49.084;8.646;2022-11-20T00:27:36;9.20;;;9.20;;
20844;SDS011;10583;49.084;8.646;2022-11-20T00:30:03;7.83;;;7.83;;
20844;SDS011;10583;49.084;8.646;2022-11-20T00:32:30;8.53;;;8.53;;
20844;SDS011;10583;49.084;8.646;2022-11-20T00:34:57;8.93;;;8.93;;
20844;SDS011;10583;49.084;8.646;2022-11-20T00:37:24;8.93;;;8.93;;
20844;SDS011;10583;49.084;8.646;2022-11-20T00:39:52;9.17;;;9.17;;
20844;SDS011;10583;49.084;8.646;2022-11-20T00:42:19;8.90;;;8.90;;
20844;SDS011;10583;49.084;8.646;2022-11-20T00:44:46;9.13;;;9.13;;
20844;SDS011;10583;49.084;8.646;2022-11-20T00:47:13;9.93;;;9.93;;
20844;SDS011;10583;49.084;8.646;2022-11-20T00:49:39;11.30;;;11.30;;
20844;SDS011;10583;49.084;8.646;2022-11-20T00:52:06;13.47;;;13.47;;
20844;SDS011;10583;49.084;8.646;2022-11-20T00:54:33;15.10;;;15.00;;
20844;SDS011;10583;49.084;8.646;2022-11-20T00:57:01;17.30;;;17.20;;
20844;SDS011;10583;49.084;8.646;2022-11-20T00:59:27;15.43;;;15.33;;
20844;SDS011;10583;49.084;8.646;2022-11-20T01:01:54;16.27;;;16.17;;
20844;SDS011;10583;49.084;8.646;2022-11-20T01:04:21;17.50;;;17.40;;
20844;SDS011;10583;49.084;8.646;2022-11-20T01:06:47;18.53;;;18.43;;
20844;SDS011;10583;49.084;8.646;2022-11-20T01:09:14;18.17;;;18.07;;
20844;SDS011;10583;49.084;8.646;2022-11-20T01:11:41;18.60;;;18.50;;
20844;SDS011;10583;49.084;8.646;2022-11-20T01:14:11;18.77;;;18.67;;
20844;SDS011;10583;49.084;8.646;2022-11-20T01:16:40;18.53;;;18.43;;
20844;SDS011;10583;49.084;8.646;2022-11-20T01:19:10;17.13;;;17.03;;
20844;SDS011;10583;49.084;8.646;2022-11-20T01:21:39;17.80;;;17.70;;
20844;SDS011;10583;49.084;8.646;2022-11-20T01:24:08;17.63;;;17.53;;
20844;SDS011;10583;49.084;8.646;2022-11-20T01:26:37;17.10;;;17.00;;
20844;SDS011;10583;49.084;8.646;2022-11-20T01:29:07;18.23;;;18.13;;
20844;SDS011;10583;49.084;8.646;2022-11-20T01:31:38;15.23;;;15.13;;
20844;SDS011;10583;49.084;8.646;2022-11-20T01:34:05;16.70;;;16.60;;
20844;SDS011;10583;49.084;8.646;2022-11-20T01:36:35;16.90;;;16.80;;
20844;SDS011;10583;49.084;8.646;2022-11-20T01:39:03;15.73;;;15.63;;
20844;SDS011;10583;49.084;8.646;2022-11-20T01:41:31;14.27;;;14.17;;
20844;SDS011;10583;49.084;8.646;2022-11-20T01:44:39;15.47;;;15.37;;
20844;SDS011;10583;49.084;8.646;2022-11-20T01:47:13;12.90;;;12.90;;
20844;SDS011;10583;49.084;8.646;2022-11-20T01:49:44;14.23;;;14.13;;
20844;SDS011;10583;49.084;8.646;2022-11-20T01:52:15;12.83;;;12.73;;
20844;SDS011;10583;49.084;8.646;2022-11-20T01:54:46;13.80;;;13.70;;
20844;SDS011;10583;49.084;8.646;2022-11-20T01:57:16;14.10;;;14.00;;
20844;SDS011;10583;49.084;8.646;2022-11-20T01:59:47;13.73;;;13.73;;
20844;SDS011;10583;49.084;8.646;2022-11-20T02:02:20;13.17;;;13.07;;
20844;SDS011;10583;49.084;8.646;2022-11-20T02:04:47;13.23;;;13.23;;
20844;SDS011;10583;49.084;8.646;2022-11-20T02:07:17;12.03;;;12.03;;
20844;SDS011;10583;49.084;8.646;2022-11-20T02:09:45;13.03;;;12.93;;
20844;SDS011;10583;49.084;8.646;2022-11-20T02:12:12;12.07;;;12.00;;
20844;SDS011;10583;49.084;8.646;2022-11-20T02:14:53;11.57;;;11.57;;
20844;SDS011;10583;49.084;8.646;2022-11-20T02:17:22;11.27;;;11.27;;
20844;SDS011;10583;49.084;8.646;2022-11-20T02:19:49;12.30;;;12.30;;
20844;SDS011;10583;49.084;8.646;2022-11-20T02:22:17;10.63;;;10.63;;
20844;SDS011;10583;49.084;8.646;2022-11-20T02:24:49;11.20;;;11.20;;
20844;SDS011;10583;49.084;8.646;2022-11-20T02:27:17;11.13;;;11.13;;
20844;SDS011;10583;49.084;8.646;2022-11-20T02:29:45;10.13;;;10.13;;
20844;SDS011;10583;49.084;8.646;2022-11-20T02:32:18;11.30;;;11.30;;
20844;SDS011;10583;49.084;8.646;2022-11-20T02:34:45;10.10;;;10.10;;
20844;SDS011;10583;49.084;8.646;2022-11-20T02:37:12;10.20;;;10.20;;
20844;SDS011;10583;49.084;8.646;2022-11-20T02:39:40;10.43;;;10.43;;
20844;SDS011;10583;49.084;8.646;2022-11-20T02:42:08;10.20;;;10.20;;
20844;SDS011;10583;49.084;8.646;2022-11-20T02:44:35;10.53;;;10.53;;
20844;SDS011;10583;49.084;8.646;2022-11-20T02:47:02;9.67;;;9.67;;
20844;SDS011;10583;49.084;8.646;2022-11-20T02:49:29;9.23;;;9.23;;
20844;SDS011;10583;49.084;8.646;2022-11-20T02:51:56;9.70;;;9.70;;
20844;SDS011;10583;49.084;8.646;2022-11-20T02:54:22;9.40;;;9.40;;
20844;SDS011;10583;49.084;8.646;2022-11-20T02:56:49;10.00;;;10.00;;
20844;SDS011;10583;49.084;8.646;2022-11-20T02:59:17;10.03;;;10.03;;
20844;SDS011;10583;49.084;8.646;2022-11-20T03:01:44;9.40;;;9.40;;
20844;SDS011;10583;49.084;8.646;2022-11-20T03:04:11;9.03;;;9.03;;
20844;SDS011;10583;49.084;8.646;2022-11-20T03:06:38;9.10;;;9.10;;
20844;SDS011;10583;49.084;8.646;2022-11-20T03:09:05;8.47;;;8.47;;
20844;SDS011;10583;49.084;8.646;2022-11-20T03:11:31;8.73;;;8.73;;
20844;SDS011;10583;49.084;8.646;2022-11-20T03:14:01;8.57;;;8.57;;
20844;SDS011;10583;49.084;8.646;2022-11-20T03:16:30;9.90;;;9.90;;
20844;SDS011;10583;49.084;8.646;2022-11-20T03:18:57;9.27;;;9.27;;
20844;SDS011;10583;49.084;8.646;2022-11-20T03:21:24;9.97;;;9.97;;
20844;SDS011;10583;49.084;8.646;2022-11-20T03:23:50;9.80;;;9.80;;
20844;SDS011;10583;49.084;8.646;2022-11-20T03:26:19;9.10;;;9.10;;
20844;SDS011;10583;49.084;8.646;2022-11-20T03:28:47;8.70;;;8.70;;
20844;SDS011;10583;49.084;8.646;2022-11-20T03:31:16;9.00;;;9.00;;
20844;SDS011;10583;49.084;8.646;2022-11-20T03:33:46;8.70;;;8.70;;
20844;SDS011;10583;49.084;8.646;2022-11-20T03:36:14;8.13;;;8.13;;
20844;SDS011;10583;49.084;8.646;2022-11-20T03:38:41;8.53;;;8.53;;
20844;SDS011;10583;49.084;8.646;2022-11-20T03:41:08;8.37;;;8.37;;
20844;SDS011;10583;49.084;8.646;2022-11-20T03:43:37;7.97;;;7.97;;
20844;SDS011;10583;49.084;8.646;2022-11-20T03:46:04;7.53;;;7.53;;
20844;SDS011;10583;49.084;8.646;2022-11-20T03:48:32;8.07;;;8.07;;
20844;SDS011;10583;49.084;8.646;2022-11-20T03:51:09;7.27;;;7.27;;
20844;SDS011;10583;49.084;8.646;2022-11-20T03:53:37;6.67;;;6.67;;
20844;SDS011;10583;49.084;8.646;2022-11-20T03:56:04;7.10;;;7.10;;
20844;SDS011;10583;49.084;8.646;2022-11-20T03:58:32;7.00;;;7.00;;
20844;SDS011;10583;49.084;8.646;2022-11-20T04:01:03;6.63;;;6.63;;
20844;SDS011;10583;49.084;8.646;2022-11-20T04:03:31;6.77;;;6.77;;
20844;SDS011;10583;49.084;8.646;2022-11-20T04:06:00;6.60;;;6.60;;
20844;SDS011;10583;49.084;8.646;2022-11-20T04:08:30;6.30;;;6.30;;
20844;SDS011;10583;49.084;8.646;2022-11-20T04:11:07;6.50;;;6.50;;
20844;SDS011;10583;49.084;8.646;2022-11-20T04:13:35;6.27;;;6.27;;
20844;SDS011;10583;49.084;8.646;2022-11-20T04:16:02;5.83;;;5.83;;
20844;SDS011;10583;49.084;8.646;2022-11-20T04:18:28;6.37;;;6.37;;
20844;SDS011;10583;49.084;8.646;2022-11-20T04:20:56;6.27;;;6.27;;
20844;SDS011;10583;49.084;8.646;2022-11-20T04:23:22;6.10;;;6.10;;
20844;SDS011;10583;49.084;8.646;2022-11-20T04:25:50;5.77;;;5.77;;
20844;SDS011;10583;49.084;8.646;2022-11-20T04:28:17;6.63;;;6.63;;
20844;SDS011;10583;49.084;8.646;2022-11-20T04:30:44;6.30;;;6.30;;
20844;SDS011;10583;49.084;8.646;2022-11-20T04:33:11;6.23;;;6.23;;
20844;SDS011;10583;49.084;8.646;2022-11-20T04:35:38;5.80;;;5.80;;
20844;SDS011;10583;49.084;8.646;2022-11-20T04:38:04;5.90;;;5.90;;
20844;SDS011;10583;49.084;8.646;2022-11-20T04:40:31;5.13;;;5.13;;
20844;SDS011;10583;49.084;8.646;2022-11-20T04:42:59;5.03;;;5.03;;
20844;SDS011;10583;49.084;8.646;2022-11-20T04:45:26;5.83;;;5.83;;
20844;SDS011;10583;49.084;8.646;2022-11-20T04:47:53;5.57;;;5.57;;
20844;SDS011;10583;49.084;8.646;2022-11-20T04:50:19;5.93;;;5.93;;
20844;SDS011;10583;49.084;8.646;2022-11-20T04:52:46;5.97;;;5.97;;
20844;SDS011;10583;49.084;8.646;2022-11-20T04:55:13;5.67;;;5.67;;
20844;SDS011;10583;49.084;8.646;2022-11-20T04:57:39;5.47;;;5.47;;
20844;SDS011;10583;49.084;8.646;2022-11-20T05:00:08;5.03;;;5.03;;
20844;SDS011;10583;49.084;8.646;2022-11-20T05:02:36;5.03;;;5.03;;
20844;SDS011;10583;49.084;8.646;2022-11-20T05:05:02;5.40;;;5.40;;
20844;SDS011;10583;49.084;8.646;2022-11-20T05:07:29;5.23;;;5.23;;
20844;SDS011;10583;49.084;8.646;2022-11-20T05:09:56;4.93;;;4.93;;
20844;SDS011;10583;49.084;8.646;2022-11-20T05:12:23;5.60;;;5.60;;
20844;SDS011;10583;49.084;8.646;2022-11-20T05:14:49;5.60;;;5.60;;
20844;SDS011;10583;49.084;8.646;2022-11-20T05:17:18;5.50;;;5.50;;
20844;SDS011;10583;49.084;8.646;2022-11-20T05:19:44;5.70;;;5.70;;
20844;SDS011;10583;49.084;8.646;2022-11-20T05:22:11;5.00;;;5.00;;
20844;SDS011;10583;49.084;8.646;2022-11-20T05:24:38;5.20;;;5.20;;
20844;SDS011;10583;49.084;8.646;2022-11-20T05:27:04;4.87;;;4.87;;
20844;SDS011;10583;49.084;8.646;2022-11-20T05:29:31;4.73;;;4.73;;
20844;SDS011;10583;49.084;8.646;2022-11-20T05:31:58;5.23;;;5.23;;
20844;SDS011;10583;49.084;8.646;2022-11-20T05:34:26;4.80;;;4.80;;
20844;SDS011;10583;49.084;8.646;2022-11-20T05:36:52;4.23;;;4.23;;
20844;SDS011;10583;49.084;8.646;2022-11-20T05:39:19;4.73;;;4.73;;
20844;SDS011;10583;49.084;8.646;2022-11-20T05:41:46;4.73;;;4.73;;
20844;SDS011;10583;49.084;8.646;2022-11-20T05:44:32;4.67;;;4.67;;
20844;SDS011;10583;49.084;8.646;2022-11-20T05:46:59;4.83;;;4.83;;
20844;SDS011;10583;49.084;8.646;2022-11-20T05:49:27;4.37;;;4.37;;
20844;SDS011;10583;49.084;8.646;2022-11-20T05:51:54;4.50;;;4.50;;
20844;SDS011;10583;49.084;8.646;2022-11-20T05:54:20;4.20;;;4.20;;
20844;SDS011;10583;49.084;8.646;2022-11-20T05:56:47;4.00;;;4.00;;
20844;SDS011;10583;49.084;8.646;2022-11-20T05:59:14;3.67;;;3.67;;
20844;SDS011;10583;49.084;8.646;2022-11-20T06:01:44;4.20;;;4.20;;
20844;SDS011;10583;49.084;8.646;2022-11-20T06:04:11;4.00;;;4.00;;
20844;SDS011;10583;49.084;8.646;2022-11-20T06:06:39;3.90;;;3.90;;
20844;SDS011;10583;49.084;8.646;2022-11-20T06:09:05;3.83;;;3.83;;
20844;SDS011;10583;49.084;8.646;2022-11-20T06:11:32;4.07;;;4.07;;
20844;SDS011;10583;49.084;8.646;2022-11-20T06:13:59;3.33;;;3.33;;
20844;SDS011;10583;49.084;8.646;2022-11-20T06:16:25;3.30;;;3.30;;
20844;SDS011;10583;49.084;8.646;2022-11-20T06:18:52;3.90;;;3.90;;
20844;SDS011;10583;49.084;8.646;2022-11-20T06:21:19;3.63;;;3.63;;
20844;SDS011;10583;49.084;8.646;2022-11-20T06:23:50;4.70;;;4.70;;
20844;SDS011;10583;49.084;8.646;2022-11-20T06:26:19;3.80;;;3.80;;
20844;SDS011;10583;49.084;8.646;2022-11-20T06:28:47;3.90;;;3.90;;
20844;SDS011;10583;49.084;8.646;2022-11-20T06:31:15;3.83;;;3.83;;
20844;SDS011;10583;49.084;8.646;2022-11-20T06:33:42;3.90;;;3.90;;
20844;SDS011;10583;49.084;8.646;2022-11-20T06:36:10;3.83;;;3.83;;
20844;SDS011;10583;49.084;8.646;2022-11-20T06:38:37;3.93;;;3.93;;
20844;SDS011;10583;49.084;8.646;2022-11-20T06:41:07;3.43;;;3.43;;
20844;SDS011;10583;49.084;8.646;2022-11-20T06:43:36;3.63;;;3.63;;
20844;SDS011;10583;49.084;8.646;2022-11-20T06:46:03;4.23;;;4.23;;
20844;SDS011;10583;49.084;8.646;2022-11-20T06:48:30;3.90;;;3.90;;
20844;SDS011;10583;49.084;8.646;2022-11-20T06:50:57;3.87;;;3.87;;
20844;SDS011;10583;49.084;8.646;2022-11-20T06:53:24;4.00;;;4.00;;
20844;SDS011;10583;49.084;8.646;2022-11-20T06:55:51;3.70;;;3.70;;
20844;SDS011;10583;49.084;8.646;2022-11-20T06:58:19;4.00;;;4.00;;
20844;SDS011;10583;49.084;8.646;2022-11-20T07:00:46;4.13;;;4.13;;
20844;SDS011;10583;49.084;8.646;2022-11-20T07:03:13;3.20;;;3.20;;
20844;SDS011;10583;49.084;8.646;2022-11-20T07:05:39;3.43;;;3.43;;
20844;SDS011;10583;49.084;8.646;2022-11-20T07:08:06;3.40;;;3.40;;
20844;SDS011;10583;49.084;8.646;2022-11-20T07:10:33;3.70;;;3.70;;
20844;SDS011;10583;49.084;8.646;2022-11-20T07:13:00;3.70;;;3.70;;
20844;SDS011;10583;49.084;8.646;2022-11-20T07:15:28;3.20;;;3.20;;
20844;SDS011;10583;49.084;8.646;2022-11-20T07:17:55;3.20;;;3.20;;
20844;SDS011;10583;49.084;8.646;2022-11-20T07:20:24;2.90;;;2.90;;
20844;SDS011;10583;49.084;8.646;2022-11-20T07:22:53;3.70;;;3.70;;
20844;SDS011;10583;49.084;8.646;2022-11-20T07:25:20;3.67;;;3.67;;
20844;SDS011;10583;49.084;8.646;2022-11-20T07:27:47;3.50;;;3.50;;
20844;SDS011;10583;49.084;8.646;2022-11-20T07:30:14;3.20;;;3.20;;
20844;SDS011;10583;49.084;8.646;2022-11-20T07:32:42;3.47;;;3.47;;
20844;SDS011;10583;49.084;8.646;2022-11-20T07:35:12;3.33;;;3.33;;
20844;SDS011;10583;49.084;8.646;2022-11-20T07:37:39;3.50;;;3.50;;
20844;SDS011;10583;49.084;8.646;2022-11-20T07:40:05;3.17;;;3.17;;
20844;SDS011;10583;49.084;8.646;2022-11-20T07:42:32;3.13;;;3.13;;
20844;SDS011;10583;49.084;8.646;2022-11-20T07:44:59;3.10;;;3.10;;
20844;SDS011;10583;49.084;8.646;2022-11-20T07:47:26;3.20;;;3.20;;
20844;SDS011;10583;49.084;8.646;2022-11-20T07:49:54;3.33;;;3.33;;
20844;SDS011;10583;49.084;8.646;2022-11-20T07:52:21;3.47;;;3.47;;
20844;SDS011;10583;49.084;8.646;2022-11-20T07:54:47;3.40;;;3.40;;
20844;SDS011;10583;49.084;8.646;2022-11-20T07:57:14;3.53;;;3.53;;
20844;SDS011;10583;49.084;8.646;2022-11-20T07:59:41;3.53;;;3.53;;
20844;SDS011;10583;49.084;8.646;2022-11-20T08:02:09;3.50;;;3.50;;
20844;SDS011;10583;49.084;8.646;2022-11-20T08:04:36;3.93;;;3.93;;
20844;SDS011;10583;49.084;8.646;2022-11-20T08:07:04;3.50;;;3.50;;
20844;SDS011;10583;49.084;8.646;2022-11-20T08:09:31;3.50;;;3.50;;
20844;SDS011;10583;49.084;8.646;2022-11-20T08:11:58;4.10;;;4.10;;
20844;SDS011;10583;49.084;8.646;2022-11-20T08:14:42;4.60;;;4.60;;
20844;SDS011;10583;49.084;8.646;2022-11-20T08:17:09;4.30;;;4.30;;
20844;SDS011;10583;49.084;8.646;2022-11-20T08:19:36;4.20;;;4.20;;
20844;SDS011;10583;49.084;8.646;2022-11-20T08:22:03;4.10;;;4.10;;
20844;SDS011;10583;49.084;8.646;2022-11-20T08:24:31;4.47;;;4.47;;
20844;SDS011;10583;49.084;8.646;2022-11-20T08:26:58;4.37;;;4.37;;
20844;SDS011;10583;49.084;8.646;2022-11-20T08:29:25;4.33;;;4.33;;
20844;SDS011;10583;49.084;8.646;2022-11-20T08:31:52;4.23;;;4.23;;
20844;SDS011;10583;49.084;8.646;2022-11-20T08:34:19;4.10;;;4.10;;
20844;SDS011;10583;49.084;8.646;2022-11-20T08:36:45;4.60;;;4.60;;
20844;SDS011;10583;49.084;8.646;2022-11-20T08:39:14;4.80;;;4.80;;
20844;SDS011;10583;49.084;8.646;2022-11-20T08:41:43;4.90;;;4.90;;
20844;SDS011;10583;49.084;8.646;2022-11-20T08:44:10;4.10;;;4.10;;
20844;SDS011;10583;49.084;8.646;2022-11-20T08:46:38;4.43;;;4.43;;
20844;SDS011;10583;49.084;8.646;2022-11-20T08:49:06;4.50;;;4.50;;
20844;SDS011;10583;49.084;8.646;2022-11-20T08:51:34;4.30;;;4.30;;
20844;SDS011;10583;49.084;8.646;2022-11-20T08:54:01;4.57;;;4.57;;
20844;SDS011;10583;49.084;8.646;2022-11-20T08:56:30;4.50;;;4.50;;
20844;SDS011;10583;49.084;8.646;2022-11-20T08:58:57;6.53;;;6.53;;
20844;SDS011;10583;49.084;8.646;2022-11-20T09:01:25;5.50;;;5.50;;
20844;SDS011;10583;49.084;8.646;2022-11-20T09:03:52;5.43;;;5.43;;
20844;SDS011;10583;49.084;8.646;2022-11-20T09:06:20;4.67;;;4.67;;
20844;SDS011;10583;49.084;8.646;2022-11-20T09:08:47;5.10;;;5.10;;
20844;SDS011;10583;49.084;8.646;2022-11-20T09:11:17;5.13;;;5.13;;
20844;SDS011;10583;49.084;8.646;2022-11-20T09:13:46;5.60;;;5.60;;
20844;SDS011;10583;49.084;8.646;2022-11-20T09:16:12;4.80;;;4.80;;
20844;SDS011;10583;49.084;8.646;2022-11-20T09:18:39;5.00;;;5.00;;
20844;SDS011;10583;49.084;8.646;2022-11-20T09:21:07;5.27;;;5.27;;
20844;SDS011;10583;49.084;8.646;2022-11-20T09:23:36;4.80;;;4.80;;
20844;SDS011;10583;49.084;8.646;2022-11-20T09:26:04;5.27;;;5.27;;
20844;SDS011;10583;49.084;8.646;2022-11-20T09:28:31;5.57;;;5.57;;
20844;SDS011;10583;49.084;8.646;2022-11-20T09:31:00;5.27;;;5.27;;
20844;SDS011;10583;49.084;8.646;2022-11-20T09:33:31;5.10;;;5.10;;
20844;SDS011;10583;49.084;8.646;2022-11-20T09:35:58;5.30;;;5.30;;
20844;SDS011;10583;49.084;8.646;2022-11-20T09:38:25;4.97;;;4.97;;
20844;SDS011;10583;49.084;8.646;2022-11-20T09:40:53;4.83;;;4.83;;
20844;SDS011;10583;49.084;8.646;2022-11-20T09:43:25;4.83;;;4.83;;
20844;SDS011;10583;49.084;8.646;2022-11-20T09:46:05;5.23;;;5.23;;
20844;SDS011;10583;49.084;8.646;2022-11-20T09:48:44;5.23;;;5.23;;
20844;SDS011;10583;49.084;8.646;2022-11-20T09:51:25;5.13;;;5.13;;
20844;SDS011;10583;49.084;8.646;2022-11-20T09:54:06;4.60;;;4.60;;
20844;SDS011;10583;49.084;8.646;2022-11-20T09:56:41;4.80;;;4.80;;
20844;SDS011;10583;49.084;8.646;2022-11-20T09:59:14;4.50;;;4.50;;
20844;SDS011;10583;49.084;8.646;2022-11-20T10:01:50;4.17;;;4.17;;
20844;SDS011;10583;49.084;8.646;2022-11-20T10:04:17;3.90;;;3.90;;
20844;SDS011;10583;49.084;8.646;2022-11-20T10:06:47;4.50;;;4.50;;
20844;SDS011;10583;49.084;8.646;2022-11-20T10:09:21;4.50;;;4.50;;
20844;SDS011;10583;49.084;8.646;2022-11-20T10:11:59;4.50;;;4.50;;
20844;SDS011;10583;49.084;8.646;2022-11-20T10:14:38;9.07;;;9.07;;
20844;SDS011;10583;49.084;8.646;2022-11-20T10:17:17;9.30;;;9.30;;
20844;SDS011;10583;49.084;8.646;2022-11-20T10:19:56;5.50;;;5.50;;
20844;SDS011;10583;49.084;8.646;2022-11-20T10:22:40;5.23;;;5.23;;
20844;SDS011;10583;49.084;8.646;2022-11-20T10:25:29;5.47;;;5.47;;
20844;SDS011;10583;49.084;8.646;2022-11-20T10:28:07;4.70;;;4.70;;
20844;SDS011;10583;49.084;8.646;2022-11-20T10:30:42;5.50;;;5.50;;
20844;SDS011;10583;49.084;8.646;2022-11-20T10:33:15;5.40;;;5.40;;
20844;SDS011;10583;49.084;8.646;2022-11-20T10:35:44;5.00;;;5.00;;
20844;SDS011;10583;49.084;8.646;2022-11-20T10:38:20;5.67;;;5.67;;
20844;SDS011;10583;49.084;8.646;2022-11-20T10:40:51;6.60;;;6.60;;
20844;SDS011;10583;49.084;8.646;2022-11-20T10:43:40;5.87;;;5.87;;
20844;SDS011;10583;49.084;8.646;2022-11-20T10:46:08;5.80;;;5.80;;
20844;SDS011;10583;49.084;8.646;2022-11-20T10:48:43;5.80;;;5.80;;
20844;SDS011;10583;49.084;8.646;2022-11-20T10:51:12;5.73;;;5.73;;
20844;SDS011;10583;49.084;8.646;2022-11-20T10:53:51;5.60;;;5.60;;
20844;SDS011;10583;49.084;8.646;2022-11-20T10:56:25;4.97;;;4.97;;
20844;SDS011;10583;49.084;8.646;2022-11-20T11:01:51;4.70;;;4.70;;
20844;SDS011;10583;49.084;8.646;2022-11-20T11:04:31;4.50;;;4.50;;
20844;SDS011;10583;49.084;8.646;2022-11-20T11:07:05;4.50;;;4.50;;
20844;SDS011;10583;49.084;8.646;2022-11-20T11:09:39;4.40;;;4.40;;
20844;SDS011;10583;49.084;8.646;2022-11-20T11:12:09;4.50;;;4.50;;
20844;SDS011;10583;49.084;8.646;2022-11-20T11:14:44;4.33;;;4.33;;
20844;SDS011;10583;49.084;8.646;2022-11-20T11:17:23;4.10;;;4.10;;
20844;SDS011;10583;49.084;8.646;2022-11-20T11:19:58;4.47;;;4.47;;
20844;SDS011;10583;49.084;8.646;2022-11-20T11:22:25;4.17;;;4.17;;
20844;SDS011;10583;49.084;8.646;2022-11-20T11:24:55;4.13;;;4.13;;
20844;SDS011;10583;49.084;8.646;2022-11-20T11:27:22;3.70;;;3.70;;
20844;SDS011;10583;49.084;8.646;2022-11-20T11:29:48;4.43;;;4.43;;
20844;SDS011;10583;49.084;8.646;2022-11-20T11:32:17;3.73;;;3.73;;
20844;SDS011;10583;49.084;8.646;2022-11-20T11:34:57;4.30;;;4.30;;
20844;SDS011;10583;49.084;8.646;2022-11-20T11:37:26;3.53;;;3.53;;
20844;SDS011;10583;49.084;8.646;2022-11-20T11:39:58;3.67;;;3.67;;
20844;SDS011;10583;49.084;8.646;2022-11-20T11:42:25;4.03;;;4.03;;
20844;SDS011;10583;49.084;8.646;2022-11-20T11:44:54;4.00;;;4.00;;
20844;SDS011;10583;49.084;8.646;2022-11-20T11:47:32;3.53;;;3.53;;
20844;SDS011;10583;49.084;8.646;2022-11-20T11:50:13;3.27;;;3.27;;
20844;SDS011;10583;49.084;8.646;2022-11-20T11:52:43;3.77;;;3.77;;
20844;SDS011;10583;49.084;8.646;2022-11-20T11:55:15;2.83;;;2.83;;
20844;SDS011;10583;49.084;8.646;2022-11-20T11:57:47;3.00;;;3.00;;
20844;SDS011;10583;49.084;8.646;2022-11-20T12:00:18;3.60;;;3.60;;
20844;SDS011;10583;49.084;8.646;2022-11-20T12:02:49;4.23;;;4.23;;
20844;SDS011;10583;49.084;8.646;2022-11-20T12:05:25;3.20;;;3.20;;
20844;SDS011;10583;49.084;8.646;2022-11-20T12:07:55;5.50;;;5.50;;
20844;SDS011;10583;49.084;8.646;2022-11-20T12:10:32;5.10;;;5.10;;
20844;SDS011;10583;49.084;8.646;2022-11-20T12:13:09;5.00;;;5.00;;
20844;SDS011;10583;49.084;8.646;2022-11-20T12:15:47;7.00;;;7.00;;
20844;SDS011;10583;49.084;8.646;2022-11-20T12:18:15;7.87;;;7.83;;
20844;SDS011;10583;49.084;8.646;2022-11-20T12:20:52;3.07;;;3.07;;
20844;SDS011;10583;49.084;8.646;2022-11-20T12:23:28;2.90;;;2.90;;
20844;SDS011;10583;49.084;8.646;2022-11-20T12:26:00;2.10;;;2.10;;
20844;SDS011;10583;49.084;8.646;2022-11-20T12:28:38;2.07;;;2.07;;
20844;SDS011;10583;49.084;8.646;2022-11-20T12:31:17;2.37;;;2.37;;
20844;SDS011;10583;49.084;8.646;2022-11-20T12:34:02;2.00;;;2.00;;
20844;SDS011;10583;49.084;8.646;2022-11-20T12:36:40;2.73;;;2.73;;
20844;SDS011;10583;49.084;8.646;2022-11-20T12:39:22;1.80;;;1.80;;
20844;SDS011;10583;49.084;8.646;2022-11-20T12:48:36;3.00;;;3.00;;
20844;SDS011;10583;49.084;8.646;2022-11-20T12:51:30;2.37;;;2.37;;
20844;SDS011;10583;49.084;8.646;2022-11-20T12:54:25;2.20;;;2.20;;
20844;SDS011;10583;49.084;8.646;2022-11-20T12:57:09;2.03;;;2.03;;
20844;SDS011;10583;49.084;8.646;2022-11-20T12:59:48;1.63;;;1.63;;
20844;SDS011;10583;49.084;8.646;2022-11-20T13:02:30;1.57;;;1.57;;
20844;SDS011;10583;49.084;8.646;2022-11-20T13:05:07;1.43;;;1.43;;
20844;SDS011;10583;49.084;8.646;2022-11-20T13:07:44;1.60;;;1.60;;
20844;SDS011;10583;49.084;8.646;2022-11-20T13:10:16;1.37;;;1.37;;
20844;SDS011;10583;49.084;8.646;2022-11-20T13:12:48;1.00;;;1.00;;
20844;SDS011;10583;49.084;8.646;2022-11-20T13:15:23;1.50;;;1.50;;
20844;SDS011;10583;49.084;8.646;2022-11-20T13:18:03;1.23;;;1.23;;
20844;SDS011;10583;49.084;8.646;2022-11-20T13:20:34;1.20;;;1.20;;
20844;SDS011;10583;49.084;8.646;2022-11-20T13:23:02;2.03;;;2.03;;
20844;SDS011;10583;49.084;8.646;2022-11-20T13:25:30;1.33;;;1.33;;
20844;SDS011;10583;49.084;8.646;2022-11-20T13:27:59;1.10;;;1.10;;
20844;SDS011;10583;49.084;8.646;2022-11-20T13:30:27;1.30;;;1.30;;
20844;SDS011;10583;49.084;8.646;2022-11-20T13:32:56;1.33;;;1.33;;
20844;SDS011;10583;49.084;8.646;2022-11-20T13:35:29;1.20;;;1.20;;
20844;SDS011;10583;49.084;8.646;2022-11-20T13:38:05;1.33;;;1.33;;
20844;SDS011;10583;49.084;8.646;2022-11-20T13:40:35;1.10;;;1.10;;
20844;SDS011;10583;49.084;8.646;2022-11-20T13:43:15;1.40;;;1.40;;
20844;SDS011;10583;49.084;8.646;2022-11-20T13:45:57;1.10;;;1.10;;
20844;SDS011;10583;49.084;8.646;2022-11-20T13:48:25;1.23;;;1.23;;
20844;SDS011;10583;49.084;8.646;2022-11-20T13:50:56;1.67;;;1.67;;
20844;SDS011;10583;49.084;8.646;2022-11-20T13:53:33;1.40;;;1.40;;
20844;SDS011;10583;49.084;8.646;2022-11-20T13:56:17;1.20;;;1.20;;
20844;SDS011;10583;49.084;8.646;2022-11-20T13:58:53;1.27;;;1.27;;
20844;SDS011;10583;49.084;8.646;2022-11-20T14:01:26;1.50;;;1.50;;
20844;SDS011;10583;49.084;8.646;2022-11-20T14:03:56;1.70;;;1.70;;
20844;SDS011;10583;49.084;8.646;2022-11-20T14:06:25;1.50;;;1.50;;
20844;SDS011;10583;49.084;8.646;2022-11-20T14:08:53;1.53;;;1.53;;
20844;SDS011;10583;49.084;8.646;2022-11-20T14:11:22;0.90;;;0.90;;
20844;SDS011;10583;49.084;8.646;2022-11-20T14:13:51;1.67;;;1.67;;
20844;SDS011;10583;49.084;8.646;2022-11-20T14:16:20;1.30;;;1.30;;
20844;SDS011;10583;49.084;8.646;2022-11-20T14:18:47;1.37;;;1.37;;
20844;SDS011;10583;49.084;8.646;2022-11-20T14:21:20;1.50;;;1.50;;
20844;SDS011;10583;49.084;8.646;2022-11-20T14:23:48;1.30;;;1.30;;
20844;SDS011;10583;49.084;8.646;2022-11-20T14:26:15;2.17;;;2.17;;
20844;SDS011;10583;49.084;8.646;2022-11-20T14:28:47;3.90;;;3.90;;
20844;SDS011;10583;49.084;8.646;2022-11-20T14:31:17;2.37;;;2.37;;
20844;SDS011;10583;49.084;8.646;2022-11-20T14:33:49;1.40;;;1.40;;
20844;SDS011;10583;49.084;8.646;2022-11-20T14:36:17;1.50;;;1.50;;
20844;SDS011;10583;49.084;8.646;2022-11-20T14:38:46;1.30;;;1.30;;
20844;SDS011;10583;49.084;8.646;2022-11-20T14:41:16;1.67;;;1.67;;
20844;SDS011;10583;49.084;8.646;2022-11-20T14:43:46;1.80;;;1.80;;
20844;SDS011;10583;49.084;8.646;2022-11-20T14:46:15;2.97;;;2.97;;
20844;SDS011;10583;49.084;8.646;2022-11-20T14:48:44;1.40;;;1.40;;
20844;SDS011;10583;49.084;8.646;2022-11-20T14:51:23;1.20;;;1.20;;
20844;SDS011;10583;49.084;8.646;2022-11-20T14:53:55;1.23;;;1.23;;
20844;SDS011;10583;49.084;8.646;2022-11-20T14:56:22;0.90;;;0.90;;
20844;SDS011;10583;49.084;8.646;2022-11-20T14:58:57;0.90;;;0.90;;
20844;SDS011;10583;49.084;8.646;2022-11-20T15:01:28;0.97;;;0.97;;
20844;SDS011;10583;49.084;8.646;2022-11-20T15:04:06;1.03;;;1.03;;
20844;SDS011;10583;49.084;8.646;2022-11-20T15:06:35;0.90;;;0.90;;
20844;SDS011;10583;49.084;8.646;2022-11-20T15:09:03;1.03;;;1.03;;